createdAt,value
2023-06-17T00:01:06.644Z,7.28
2023-06-17T00:03:33.191Z,7.57
2023-06-17T00:05:59.642Z,8.20
2023-06-17T00:08:26.185Z,6.93
2023-06-17T00:10:52.678Z,6.45
2023-06-17T00:13:20.921Z,6.57
2023-06-17T00:15:49.260Z,6.43
2023-06-17T00:18:20.478Z,5.75
2023-06-17T00:20:48.168Z,5.65
2023-06-17T00:23:14.749Z,7.45
2023-06-17T00:25:41.253Z,8.38
2023-06-17T00:28:07.711Z,8.20
2023-06-17T00:30:34.193Z,11.82
2023-06-17T00:33:00.815Z,8.50
2023-06-17T00:35:27.400Z,10.63
2023-06-17T00:37:53.920Z,10.80
2023-06-17T00:40:20.676Z,10.38
2023-06-17T00:42:47.422Z,10.02
2023-06-17T00:45:13.920Z,10.52
2023-06-17T00:47:40.700Z,11.13
2023-06-17T00:50:09.617Z,9.38
2023-06-17T00:52:42.616Z,10.02
2023-06-17T00:55:10.589Z,10.95
2023-06-17T00:57:38.512Z,7.90
2023-06-17T01:00:11.411Z,9.45
2023-06-17T01:02:41.972Z,11.45
2023-06-17T01:05:12.928Z,9.45
2023-06-17T01:07:47.455Z,8.90
2023-06-17T01:10:18.768Z,12.15
2023-06-17T01:12:47.386Z,8.65
2023-06-17T01:15:17.218Z,9.77
2023-06-17T01:17:45.588Z,9.65
2023-06-17T01:20:14.120Z,10.30
2023-06-17T01:22:41.348Z,9.77
2023-06-17T01:25:09.845Z,11.00
2023-06-17T01:27:36.967Z,10.52
2023-06-17T01:30:04.123Z,9.45
2023-06-17T01:32:30.754Z,9.40
2023-06-17T01:35:02.629Z,9.50
2023-06-17T01:37:41.370Z,10.18
2023-06-17T01:40:11.471Z,9.73
2023-06-17T01:42:41.808Z,11.13
2023-06-17T01:45:08.870Z,11.05
2023-06-17T01:47:35.655Z,11.50
2023-06-17T01:50:03.989Z,8.80
2023-06-17T01:52:30.467Z,9.32
2023-06-17T01:54:57.767Z,12.52
2023-06-17T01:57:24.400Z,10.18
2023-06-17T01:59:50.872Z,10.50
2023-06-17T02:02:17.458Z,12.13
2023-06-17T02:04:44.018Z,11.32
2023-06-17T02:07:11.432Z,10.15
2023-06-17T02:09:38.767Z,11.23
2023-06-17T02:12:06.507Z,10.57
2023-06-17T02:14:34.274Z,12.73
2023-06-17T02:17:01.265Z,10.25
2023-06-17T02:19:30.039Z,11.10
2023-06-17T02:21:56.836Z,11.88
2023-06-17T02:24:23.710Z,12.23
2023-06-17T02:26:51.451Z,12.45
2023-06-17T02:29:18.540Z,11.50
2023-06-17T02:31:45.085Z,10.68
2023-06-17T02:34:11.951Z,12.45
2023-06-17T02:36:39.654Z,11.82
2023-06-17T02:39:07.312Z,13.32
2023-06-17T02:41:34.212Z,10.88
2023-06-17T02:44:01.063Z,12.10
2023-06-17T02:46:28.266Z,13.00
2023-06-17T02:48:56.041Z,11.30
2023-06-17T02:51:23.324Z,11.63
2023-06-17T02:53:52.102Z,15.57
2023-06-17T02:56:18.706Z,12.75
2023-06-17T02:58:46.741Z,12.90
2023-06-17T03:01:13.883Z,15.13
2023-06-17T03:03:42.928Z,13.68
2023-06-17T03:06:10.368Z,13.02
2023-06-17T03:08:38.932Z,11.85
2023-06-17T03:11:05.720Z,14.45
2023-06-17T03:13:32.383Z,14.40
2023-06-17T03:16:00.491Z,12.48
2023-06-17T03:18:27.487Z,13.15
2023-06-17T03:20:54.645Z,15.73
2023-06-17T03:23:23.723Z,13.25
2023-06-17T03:25:51.253Z,14.98
2023-06-17T03:28:18.704Z,14.73
2023-06-17T03:30:45.766Z,15.27
2023-06-17T03:33:13.567Z,14.55
2023-06-17T03:35:40.443Z,15.23
2023-06-17T03:38:07.088Z,13.15
2023-06-17T03:40:33.558Z,12.65
2023-06-17T03:43:00.209Z,13.43
2023-06-17T03:45:26.772Z,17.05
2023-06-17T03:47:53.259Z,16.40
2023-06-17T03:50:20.079Z,16.05
2023-06-17T03:52:46.794Z,15.02
2023-06-17T03:55:13.795Z,14.88
2023-06-17T03:57:41.351Z,16.08
2023-06-17T04:00:09.151Z,15.10
2023-06-17T04:02:35.906Z,14.55
2023-06-17T04:05:03.370Z,14.93
2023-06-17T04:07:29.882Z,15.65
2023-06-17T04:10:06.277Z,14.00
2023-06-17T04:12:36.440Z,15.18
2023-06-17T04:15:02.939Z,14.35
2023-06-17T04:17:29.510Z,14.30
2023-06-17T04:19:57.519Z,14.45
2023-06-17T04:22:24.058Z,13.30
2023-06-17T04:24:57.095Z,13.93
2023-06-17T04:27:23.866Z,15.15
2023-06-17T04:29:50.428Z,14.95
2023-06-17T04:32:17.012Z,14.85
2023-06-17T04:34:49.491Z,13.82
2023-06-17T04:37:16.167Z,14.02
2023-06-17T04:39:43.208Z,14.05
2023-06-17T04:42:17.383Z,16.05
2023-06-17T04:44:44.257Z,15.70
2023-06-17T04:47:13.109Z,15.38
2023-06-17T04:49:42.546Z,13.75
2023-06-17T04:52:12.380Z,12.27
2023-06-17T04:54:39.638Z,15.10
2023-06-17T04:57:09.741Z,11.35
2023-06-17T04:59:36.338Z,12.32
2023-06-17T05:02:03.066Z,11.68
2023-06-17T05:04:29.758Z,11.13
2023-06-17T05:06:56.282Z,12.75
2023-06-17T05:09:23.759Z,12.95
2023-06-17T05:11:50.752Z,12.38
2023-06-17T05:14:17.276Z,12.52
2023-06-17T05:16:43.773Z,9.73
2023-06-17T05:19:10.266Z,11.35
2023-06-17T05:21:36.762Z,10.98
2023-06-17T05:24:04.006Z,10.85
2023-06-17T05:26:30.939Z,10.73
2023-06-17T05:28:58.173Z,12.68
2023-06-17T05:31:24.798Z,12.80
2023-06-17T05:33:51.397Z,11.90
2023-06-17T05:36:17.857Z,12.02
2023-06-17T05:38:44.409Z,14.48
2023-06-17T05:41:10.950Z,12.85
2023-06-17T05:43:37.417Z,11.88
2023-06-17T05:46:03.927Z,11.80
2023-06-17T05:48:30.509Z,12.85
2023-06-17T05:50:57.004Z,11.00
2023-06-17T05:53:23.528Z,12.43
2023-06-17T05:55:50.036Z,10.30
2023-06-17T05:58:16.515Z,11.45
2023-06-17T06:00:42.998Z,12.90
2023-06-17T06:03:09.502Z,12.32
2023-06-17T06:05:36.156Z,10.20
2023-06-17T06:08:02.671Z,17.50
2023-06-17T06:10:29.503Z,11.70
2023-06-17T06:12:56.446Z,12.02
2023-06-17T06:15:23.416Z,10.40
2023-06-17T06:17:50.110Z,9.60
2023-06-17T06:20:16.773Z,11.43
2023-06-17T06:22:43.799Z,9.65
2023-06-17T06:25:10.701Z,8.50
2023-06-17T06:27:37.321Z,9.75
2023-06-17T06:30:04.133Z,9.15
2023-06-17T06:32:30.680Z,11.57
2023-06-17T06:34:57.183Z,12.25
2023-06-17T06:37:23.750Z,10.05
2023-06-17T06:39:50.356Z,8.88
2023-06-17T06:42:16.803Z,7.80
2023-06-17T06:44:43.294Z,8.70
2023-06-17T06:47:09.726Z,10.52
2023-06-17T06:49:36.250Z,11.00
2023-06-17T06:52:02.806Z,9.32
2023-06-17T06:54:29.296Z,8.57
2023-06-17T06:56:56.826Z,10.13
2023-06-17T06:59:23.483Z,8.63
2023-06-17T07:01:49.988Z,8.20
2023-06-17T07:04:16.581Z,8.45
2023-06-17T07:06:43.209Z,9.52
2023-06-17T07:09:09.693Z,8.25
2023-06-17T07:11:36.157Z,8.30
2023-06-17T07:14:02.641Z,8.93
2023-06-17T07:16:29.470Z,6.30
2023-06-17T07:18:56.068Z,8.55
2023-06-17T07:21:22.725Z,6.90
2023-06-17T07:23:49.284Z,7.15
2023-06-17T07:26:29.491Z,8.20
2023-06-17T07:28:56.385Z,7.05
2023-06-17T07:31:23.997Z,7.40
2023-06-17T07:34:00.578Z,6.05
2023-06-17T07:36:27.120Z,7.32
2023-06-17T07:38:53.730Z,8.15
2023-06-17T07:44:02.082Z,6.65
2023-06-17T07:46:28.717Z,5.03
2023-06-17T07:48:55.284Z,5.00
2023-06-17T07:51:21.844Z,4.93
2023-06-17T07:53:48.346Z,6.25
2023-06-17T07:56:14.852Z,6.38
2023-06-17T07:58:42.263Z,7.40
2023-06-17T08:01:08.762Z,5.80
2023-06-17T08:03:35.339Z,6.18
2023-06-17T08:06:02.624Z,6.80
2023-06-17T08:08:29.105Z,5.22
2023-06-17T08:11:03.182Z,5.90
2023-06-17T08:13:29.635Z,6.72
2023-06-17T08:15:56.289Z,5.90
2023-06-17T08:18:22.792Z,7.35
2023-06-17T08:20:49.303Z,5.72
2023-06-17T08:23:15.880Z,6.55
2023-06-17T08:25:42.439Z,7.43
2023-06-17T08:28:09.039Z,6.45
2023-06-17T08:30:52.478Z,7.55
2023-06-17T08:33:19.127Z,4.65
2023-06-17T08:35:45.641Z,5.35
2023-06-17T08:38:12.187Z,5.88
2023-06-17T08:40:39.257Z,5.07
2023-06-17T08:43:06.410Z,6.32
2023-06-17T08:45:33.262Z,6.00
2023-06-17T08:47:59.814Z,6.00
2023-06-17T08:50:28.023Z,6.20
2023-06-17T08:52:55.508Z,4.95
2023-06-17T08:55:22.348Z,5.40
2023-06-17T08:57:51.527Z,6.75
2023-06-17T09:00:18.504Z,6.30
2023-06-17T09:02:48.785Z,5.93
2023-06-17T09:05:15.866Z,6.85
2023-06-17T09:07:42.533Z,7.70
2023-06-17T09:10:11.820Z,4.82
2023-06-17T09:15:09.673Z,4.68
2023-06-17T09:17:38.118Z,5.35
2023-06-17T09:20:12.333Z,7.65
2023-06-17T09:22:41.464Z,6.28
2023-06-17T09:28:02.599Z,5.88
2023-06-17T09:30:36.896Z,6.93
2023-06-17T09:33:04.026Z,6.13
2023-06-17T09:35:36.872Z,5.70
2023-06-17T09:38:04.886Z,4.95
2023-06-17T09:40:34.138Z,4.45
2023-06-17T09:43:16.355Z,6.57
2023-06-17T09:45:51.118Z,7.25
2023-06-17T09:48:18.593Z,4.95
2023-06-17T09:50:45.165Z,6.18
2023-06-17T09:53:12.484Z,4.95
2023-06-17T09:55:39.413Z,5.50
2023-06-17T09:58:06.774Z,6.80
2023-06-17T10:00:33.854Z,4.93
2023-06-17T10:03:02.155Z,6.07
2023-06-17T10:05:28.800Z,4.95
2023-06-17T10:07:56.683Z,4.60
2023-06-17T10:10:24.553Z,6.05
2023-06-17T10:12:52.110Z,6.28
2023-06-17T10:15:20.372Z,4.38
2023-06-17T10:17:48.024Z,7.50
2023-06-17T10:20:15.781Z,4.82
2023-06-17T10:22:43.794Z,7.50
2023-06-17T10:25:11.453Z,4.68
2023-06-17T10:27:38.456Z,8.98
2023-06-17T10:30:24.853Z,5.35
2023-06-17T10:32:59.289Z,8.55
2023-06-17T10:35:40.460Z,4.75
2023-06-17T10:40:37.349Z,5.78
2023-06-17T10:43:03.784Z,6.38
2023-06-17T10:45:35.747Z,5.32
2023-06-17T10:48:17.927Z,6.60
2023-06-17T10:50:48.711Z,5.30
2023-06-17T10:53:17.956Z,5.75
2023-06-17T10:55:44.998Z,4.47
2023-06-17T10:58:11.496Z,6.60
2023-06-17T11:00:38.064Z,5.38
2023-06-17T11:03:06.005Z,5.43
2023-06-17T11:05:37.062Z,6.82
2023-06-17T11:08:04.551Z,5.57
2023-06-17T11:10:31.337Z,5.72
2023-06-17T11:12:58.275Z,5.68
2023-06-17T11:15:25.191Z,4.90
2023-06-17T11:18:02.112Z,6.10
2023-06-17T11:20:34.135Z,5.10
2023-06-17T11:23:00.898Z,5.20
2023-06-17T11:25:43.635Z,5.95
2023-06-17T11:28:12.496Z,6.10
2023-06-17T11:30:41.507Z,5.93
2023-06-17T11:33:09.439Z,7.60
2023-06-17T11:35:38.145Z,5.90
2023-06-17T11:38:05.795Z,6.93
2023-06-17T11:40:32.302Z,6.88
2023-06-17T11:42:59.103Z,6.32
2023-06-17T11:45:26.113Z,5.75
2023-06-17T11:47:52.683Z,5.28
2023-06-17T11:50:19.925Z,7.68
2023-06-17T11:52:57.782Z,6.18
2023-06-17T11:55:36.953Z,5.55
2023-06-17T11:58:07.003Z,5.07
2023-06-17T12:00:37.723Z,5.93
2023-06-17T12:03:04.651Z,6.75
2023-06-17T12:05:32.634Z,4.88
2023-06-17T12:08:02.700Z,5.43
2023-06-17T12:10:29.277Z,7.68
2023-06-17T12:12:57.239Z,5.57
2023-06-17T12:18:10.557Z,6.20
2023-06-17T12:20:37.820Z,5.22
2023-06-17T12:23:05.019Z,5.38
2023-06-17T12:25:35.458Z,5.10
2023-06-17T12:28:04.783Z,6.32
2023-06-17T12:30:31.273Z,6.68
2023-06-17T12:32:58.354Z,7.80
2023-06-17T12:35:25.769Z,5.90
2023-06-17T12:37:55.643Z,5.97
2023-06-17T12:40:22.139Z,5.50
2023-06-17T12:42:48.581Z,4.72
2023-06-17T12:45:15.040Z,6.93
2023-06-17T12:47:42.114Z,5.28
2023-06-17T12:50:09.206Z,5.22
2023-06-17T12:52:35.870Z,7.40
2023-06-17T12:55:02.758Z,4.72
2023-06-17T12:57:29.981Z,5.68
2023-06-17T12:59:56.634Z,6.25
2023-06-17T13:02:25.790Z,5.30
2023-06-17T13:04:52.408Z,6.13
2023-06-17T13:07:20.643Z,4.68
2023-06-17T13:09:47.248Z,6.22
2023-06-17T13:12:14.840Z,4.65
2023-06-17T13:14:41.325Z,5.68
2023-06-17T13:17:08.083Z,4.90
2023-06-17T13:19:34.642Z,5.28
2023-06-17T13:22:01.117Z,5.03
2023-06-17T13:24:28.333Z,4.82
2023-06-17T13:26:55.641Z,4.38
2023-06-17T13:29:22.802Z,5.30
2023-06-17T13:31:49.336Z,6.13
2023-06-17T13:34:15.926Z,5.22
2023-06-17T13:36:46.134Z,5.18
2023-06-17T13:39:14.475Z,5.20
2023-06-17T13:41:41.190Z,7.10
2023-06-17T13:44:09.094Z,6.20
2023-06-17T13:46:36.274Z,5.35
2023-06-17T13:49:04.164Z,4.90
2023-06-17T13:51:30.738Z,4.82
2023-06-17T13:53:57.632Z,6.53
2023-06-17T13:56:25.444Z,5.30
2023-06-17T13:58:51.927Z,6.55
2023-06-17T14:01:18.509Z,5.22
2023-06-17T14:03:45.086Z,8.00
2023-06-17T14:06:11.772Z,4.97
2023-06-17T14:08:38.341Z,5.45
2023-06-17T14:11:04.803Z,9.98
2023-06-17T14:13:31.500Z,5.20
2023-06-17T14:15:58.108Z,5.88
2023-06-17T14:18:24.627Z,5.13
2023-06-17T14:20:51.107Z,5.25
2023-06-17T14:23:17.572Z,5.40
2023-06-17T14:25:44.062Z,5.32
2023-06-17T14:28:10.550Z,6.05
2023-06-17T14:30:37.356Z,6.50
2023-06-17T14:33:04.031Z,5.90
2023-06-17T14:35:30.828Z,7.72
2023-06-17T14:37:57.319Z,6.35
2023-06-17T14:40:24.040Z,6.90
2023-06-17T14:42:50.837Z,5.53
2023-06-17T14:45:17.571Z,5.50
2023-06-17T14:47:45.111Z,5.32
2023-06-17T14:50:12.726Z,6.53
2023-06-17T14:52:39.489Z,5.90
2023-06-17T14:55:06.631Z,5.95
2023-06-17T14:57:33.893Z,6.10
2023-06-17T15:00:00.901Z,5.53
2023-06-17T15:02:46.155Z,6.82
2023-06-17T15:05:13.236Z,6.20
2023-06-17T15:07:39.672Z,5.55
2023-06-17T15:10:06.998Z,7.45
2023-06-17T15:12:33.602Z,5.47
2023-06-17T15:15:00.133Z,5.43
2023-06-17T15:17:27.140Z,5.03
2023-06-17T15:19:53.651Z,6.15
2023-06-17T15:22:20.263Z,7.28
2023-06-17T15:24:46.721Z,6.22
2023-06-17T15:27:13.241Z,6.30
2023-06-17T15:29:40.372Z,5.63
2023-06-17T15:32:07.279Z,6.82
2023-06-17T15:34:33.782Z,6.57
2023-06-17T15:37:00.332Z,5.30
2023-06-17T15:39:29.042Z,5.88
2023-06-17T15:41:55.750Z,7.15
2023-06-17T15:44:22.918Z,6.43
2023-06-17T15:46:50.182Z,7.60
2023-06-17T15:49:16.831Z,7.80
2023-06-17T15:51:43.332Z,5.75
2023-06-17T15:54:09.919Z,6.20
2023-06-17T15:56:37.656Z,6.72
2023-06-17T15:59:04.856Z,6.10
2023-06-17T16:01:31.451Z,8.65
2023-06-17T16:03:58.457Z,6.90
2023-06-17T16:06:25.012Z,6.43
2023-06-17T16:08:52.361Z,5.72
2023-06-17T16:11:19.616Z,7.10
2023-06-17T16:13:46.260Z,6.88
2023-06-17T16:16:12.876Z,7.57
2023-06-17T16:18:39.707Z,5.80
2023-06-17T16:21:06.207Z,6.20
2023-06-17T16:23:32.752Z,6.32
2023-06-17T16:26:00.006Z,8.55
2023-06-17T16:28:26.463Z,6.88
2023-06-17T16:30:52.950Z,6.32
2023-06-17T16:33:19.484Z,7.57
2023-06-17T16:35:45.955Z,7.63
2023-06-17T16:38:12.440Z,6.20
2023-06-17T16:40:38.946Z,7.30
2023-06-17T16:43:05.431Z,6.57
2023-06-17T16:45:32.034Z,5.60
2023-06-17T16:47:58.641Z,6.55
2023-06-17T16:50:25.298Z,6.22
2023-06-17T16:52:51.943Z,5.85
2023-06-17T16:55:18.553Z,8.25
2023-06-17T16:57:45.062Z,5.85
2023-06-17T17:00:12.672Z,6.90
2023-06-17T17:02:39.484Z,7.03
2023-06-17T17:05:06.586Z,5.28
2023-06-17T17:07:33.092Z,8.50
2023-06-17T17:09:59.590Z,5.65
2023-06-17T17:12:26.054Z,6.20
2023-06-17T17:14:52.708Z,7.15
2023-06-17T17:17:19.181Z,6.40
2023-06-17T17:19:45.668Z,7.28
2023-06-17T17:22:12.165Z,6.13
2023-06-17T17:24:39.024Z,8.43
2023-06-17T17:27:07.816Z,6.28
2023-06-17T17:29:35.271Z,5.97
2023-06-17T17:32:01.849Z,6.13
2023-06-17T17:34:28.323Z,7.22
2023-06-17T17:36:54.794Z,6.78
2023-06-17T17:39:21.211Z,7.85
2023-06-17T17:41:47.726Z,6.93
2023-06-17T17:44:14.216Z,8.23
2023-06-17T17:46:40.875Z,7.22
2023-06-17T17:49:07.441Z,6.20
2023-06-17T17:51:33.901Z,6.75
2023-06-17T17:54:00.569Z,7.68
2023-06-17T17:56:27.402Z,7.00
2023-06-17T17:58:53.890Z,6.10
2023-06-17T18:01:20.547Z,6.97
2023-06-17T18:03:47.534Z,6.60
2023-06-17T18:06:14.102Z,6.20
2023-06-17T18:08:40.597Z,5.78
2023-06-17T18:11:07.090Z,9.40
2023-06-17T18:13:33.657Z,7.03
2023-06-17T18:16:00.350Z,6.72
2023-06-17T18:18:26.951Z,7.25
2023-06-17T18:20:53.441Z,7.35
2023-06-17T18:23:19.942Z,6.72
2023-06-17T18:25:46.437Z,8.25
2023-06-17T18:28:12.971Z,6.28
2023-06-17T18:30:40.468Z,6.72
2023-06-17T18:33:07.048Z,6.35
2023-06-17T18:35:34.248Z,6.47
2023-06-17T18:38:00.745Z,6.38
2023-06-17T18:40:27.203Z,11.23
2023-06-17T18:42:53.733Z,7.22
2023-06-17T18:45:20.238Z,7.95
2023-06-17T18:47:47.478Z,9.00
2023-06-17T18:50:14.060Z,7.13
2023-06-17T18:52:40.576Z,6.97
2023-06-17T18:55:07.441Z,7.00
2023-06-17T18:57:33.923Z,9.07
2023-06-17T19:00:00.548Z,11.35
2023-06-17T19:02:28.104Z,9.90
2023-06-17T19:04:54.780Z,6.90
2023-06-17T19:07:21.259Z,8.80
2023-06-17T19:09:48.748Z,7.90
2023-06-17T19:12:15.347Z,7.03
2023-06-17T19:14:41.872Z,9.60
2023-06-17T19:17:08.415Z,8.63
2023-06-17T19:19:34.932Z,8.88
2023-06-17T19:22:01.456Z,10.65
2023-06-17T19:24:27.999Z,10.52
2023-06-17T19:26:54.526Z,10.07
2023-06-17T19:29:21.065Z,8.77
2023-06-17T19:31:47.559Z,11.27
2023-06-17T19:34:14.062Z,11.45
2023-06-17T19:36:40.752Z,15.90
2023-06-17T19:39:07.260Z,8.80
2023-06-17T19:41:33.801Z,12.32
2023-06-17T19:44:00.321Z,9.18
2023-06-17T19:46:26.922Z,10.93
2023-06-17T19:48:53.458Z,8.40
2023-06-17T19:51:19.904Z,9.40
2023-06-17T19:53:46.439Z,10.27
2023-06-17T19:56:13.194Z,9.73
2023-06-17T19:58:39.721Z,7.70
2023-06-17T20:01:06.537Z,11.10
2023-06-17T20:03:33.162Z,10.27
2023-06-17T20:06:00.944Z,7.95
2023-06-17T20:08:27.533Z,9.85
2023-06-17T20:10:54.030Z,10.38
2023-06-17T20:13:20.552Z,9.93
2023-06-17T20:15:47.669Z,8.85
2023-06-17T20:18:14.353Z,9.35
2023-06-17T20:20:41.070Z,8.63
2023-06-17T20:23:07.692Z,9.27
2023-06-17T20:25:34.138Z,10.73
2023-06-17T20:28:00.679Z,9.05
2023-06-17T20:30:27.140Z,10.68
2023-06-17T20:32:53.676Z,8.02
2023-06-17T20:35:20.328Z,10.23
2023-06-17T20:37:47.246Z,8.23
2023-06-17T20:40:13.741Z,9.27
2023-06-17T20:42:40.364Z,8.07
2023-06-17T20:45:08.347Z,7.93
2023-06-17T20:47:34.998Z,8.02
2023-06-17T20:50:01.505Z,8.77
2023-06-17T20:52:28.080Z,8.52
2023-06-17T20:54:54.595Z,10.00
2023-06-17T20:57:21.130Z,9.40
2023-06-17T20:59:47.881Z,8.35
2023-06-17T21:02:16.337Z,7.40
2023-06-17T21:04:43.019Z,10.48
2023-06-17T21:07:09.470Z,10.98
2023-06-17T21:09:36.667Z,9.20
2023-06-17T21:12:03.623Z,9.63
2023-06-17T21:14:32.765Z,9.77
2023-06-17T21:16:59.440Z,10.13
2023-06-17T21:19:25.947Z,9.13
2023-06-17T21:21:52.468Z,8.38
2023-06-17T21:24:20.482Z,8.15
2023-06-17T21:26:47.080Z,9.10
2023-06-17T21:29:13.536Z,8.60
2023-06-17T21:31:39.995Z,10.27
2023-06-17T21:34:06.623Z,10.75
2023-06-17T21:36:33.121Z,9.20
2023-06-17T21:38:59.573Z,9.02
2023-06-17T21:41:27.224Z,8.10
2023-06-17T21:43:53.779Z,7.75
2023-06-17T21:46:25.018Z,9.85
2023-06-17T21:48:51.938Z,7.28
2023-06-17T21:51:18.577Z,9.38
2023-06-17T21:53:45.113Z,8.32
2023-06-17T21:56:12.894Z,9.77
2023-06-17T21:58:41.557Z,8.98
2023-06-17T22:01:08.152Z,11.57
2023-06-17T22:03:34.791Z,8.38
2023-06-17T22:06:01.923Z,8.43
2023-06-17T22:08:41.391Z,11.07
2023-06-17T22:11:10.286Z,8.32
2023-06-17T22:13:36.776Z,9.07
2023-06-17T22:16:03.498Z,10.52
2023-06-17T22:18:31.460Z,8.90
2023-06-17T22:20:58.024Z,9.48
2023-06-17T22:23:24.501Z,10.10
2023-06-17T22:25:51.001Z,9.55
2023-06-17T22:28:18.394Z,9.18
2023-06-17T22:30:44.886Z,11.70
2023-06-17T22:33:11.424Z,10.77
2023-06-17T22:35:37.963Z,8.27
2023-06-17T22:38:04.719Z,11.48
2023-06-17T22:40:31.192Z,9.10
2023-06-17T22:42:57.669Z,8.45
2023-06-17T22:45:24.163Z,9.90
2023-06-17T22:47:50.691Z,9.25
2023-06-17T22:50:17.184Z,9.57
2023-06-17T22:52:43.688Z,9.70
2023-06-17T22:55:10.246Z,11.10
2023-06-17T22:57:39.166Z,12.15
2023-06-17T23:00:06.892Z,9.48
2023-06-17T23:02:33.761Z,9.32
2023-06-17T23:05:00.702Z,12.35
2023-06-17T23:07:27.238Z,9.43
2023-06-17T23:09:53.727Z,9.88
2023-06-17T23:12:20.169Z,10.38
2023-06-17T23:14:46.825Z,11.25
2023-06-17T23:17:13.328Z,10.95
2023-06-17T23:19:39.831Z,12.40
2023-06-17T23:22:07.436Z,10.20
2023-06-17T23:24:34.127Z,9.80
2023-06-17T23:27:00.760Z,10.38
2023-06-17T23:29:27.194Z,11.35
2023-06-17T23:31:53.690Z,9.82
2023-06-17T23:34:20.422Z,12.43
2023-06-17T23:36:46.942Z,12.05
2023-06-17T23:39:13.655Z,10.57
2023-06-17T23:41:40.140Z,11.45
2023-06-17T23:44:07.052Z,12.90
2023-06-17T23:46:33.616Z,12.88
2023-06-17T23:49:00.497Z,13.48
2023-06-17T23:51:27.020Z,12.52
2023-06-17T23:53:53.529Z,11.75
2023-06-17T23:56:20.104Z,10.57
2023-06-17T23:58:46.635Z,11.48
